sensor_id;sensor_type;location;lat;lon;timestamp;P1;durP1;ratioP1;P2;durP2;ratioP2
20399;SDS011;10359;53.596;22.520;2022-09-02T00:01:56;21.47;;;17.63;;
20399;SDS011;10359;53.596;22.520;2022-09-02T00:04:29;17.57;;;15.67;;
20399;SDS011;10359;53.596;22.520;2022-09-02T00:06:58;20.60;;;15.53;;
20399;SDS011;10359;53.596;22.520;2022-09-02T00:09:30;16.70;;;14.00;;
20399;SDS011;10359;53.596;22.520;2022-09-02T00:11:59;17.10;;;13.30;;
20399;SDS011;10359;53.596;22.520;2022-09-02T00:14:35;14.53;;;12.43;;
20399;SDS011;10359;53.596;22.520;2022-09-02T00:17:06;14.30;;;11.90;;
20399;SDS011;10359;53.596;22.520;2022-09-02T00:19:43;13.53;;;10.73;;
20399;SDS011;10359;53.596;22.520;2022-09-02T00:22:21;12.13;;;10.40;;
20399;SDS011;10359;53.596;22.520;2022-09-02T00:24:51;12.70;;;9.40;;
20399;SDS011;10359;53.596;22.520;2022-09-02T00:27:20;11.83;;;8.87;;
20399;SDS011;10359;53.596;22.520;2022-09-02T00:29:49;9.03;;;7.30;;
20399;SDS011;10359;53.596;22.520;2022-09-02T00:32:19;8.43;;;7.53;;
20399;SDS011;10359;53.596;22.520;2022-09-02T00:34:49;10.03;;;8.47;;
20399;SDS011;10359;53.596;22.520;2022-09-02T00:37:19;9.27;;;8.03;;
20399;SDS011;10359;53.596;22.520;2022-09-02T00:39:49;10.07;;;8.30;;
20399;SDS011;10359;53.596;22.520;2022-09-02T00:42:20;7.40;;;6.43;;
20399;SDS011;10359;53.596;22.520;2022-09-02T00:44:50;7.00;;;6.10;;
20399;SDS011;10359;53.596;22.520;2022-09-02T00:47:21;7.23;;;5.63;;
20399;SDS011;10359;53.596;22.520;2022-09-02T00:49:52;7.07;;;5.57;;
20399;SDS011;10359;53.596;22.520;2022-09-02T00:52:25;7.17;;;6.17;;
20399;SDS011;10359;53.596;22.520;2022-09-02T00:54:58;8.10;;;5.97;;
20399;SDS011;10359;53.596;22.520;2022-09-02T00:57:31;7.60;;;4.80;;
20399;SDS011;10359;53.596;22.520;2022-09-02T01:00:05;5.50;;;3.93;;
20399;SDS011;10359;53.596;22.520;2022-09-02T01:02:37;4.93;;;3.63;;
20399;SDS011;10359;53.596;22.520;2022-09-02T01:05:11;4.57;;;3.67;;
20399;SDS011;10359;53.596;22.520;2022-09-02T01:07:43;5.53;;;3.67;;
20399;SDS011;10359;53.596;22.520;2022-09-02T01:10:20;5.57;;;4.33;;
20399;SDS011;10359;53.596;22.520;2022-09-02T01:12:58;6.30;;;4.30;;
20399;SDS011;10359;53.596;22.520;2022-09-02T01:15:43;7.67;;;5.17;;
20399;SDS011;10359;53.596;22.520;2022-09-02T01:18:17;6.13;;;5.33;;
20399;SDS011;10359;53.596;22.520;2022-09-02T01:20:49;6.20;;;4.83;;
20399;SDS011;10359;53.596;22.520;2022-09-02T01:23:19;3.97;;;3.60;;
20399;SDS011;10359;53.596;22.520;2022-09-02T01:25:50;3.87;;;3.37;;
20399;SDS011;10359;53.596;22.520;2022-09-02T01:28:20;4.00;;;3.37;;
20399;SDS011;10359;53.596;22.520;2022-09-02T01:30:50;3.43;;;3.00;;
20399;SDS011;10359;53.596;22.520;2022-09-02T01:33:21;5.07;;;3.00;;
20399;SDS011;10359;53.596;22.520;2022-09-02T01:35:51;4.43;;;2.80;;
20399;SDS011;10359;53.596;22.520;2022-09-02T01:38:23;3.53;;;2.80;;
20399;SDS011;10359;53.596;22.520;2022-09-02T01:40:54;3.73;;;3.00;;
20399;SDS011;10359;53.596;22.520;2022-09-02T01:43:25;5.50;;;3.67;;
20399;SDS011;10359;53.596;22.520;2022-09-02T01:45:56;5.20;;;3.80;;
20399;SDS011;10359;53.596;22.520;2022-09-02T01:48:26;3.87;;;3.47;;
20399;SDS011;10359;53.596;22.520;2022-09-02T01:50:57;4.30;;;3.20;;
20399;SDS011;10359;53.596;22.520;2022-09-02T01:53:32;3.57;;;3.00;;
20399;SDS011;10359;53.596;22.520;2022-09-02T01:56:02;3.03;;;2.60;;
20399;SDS011;10359;53.596;22.520;2022-09-02T01:58:31;3.43;;;2.97;;
20399;SDS011;10359;53.596;22.520;2022-09-02T02:01:01;3.10;;;2.60;;
20399;SDS011;10359;53.596;22.520;2022-09-02T02:03:30;4.13;;;2.70;;
20399;SDS011;10359;53.596;22.520;2022-09-02T02:06:06;2.93;;;2.50;;
20399;SDS011;10359;53.596;22.520;2022-09-02T02:08:39;2.90;;;2.20;;
20399;SDS011;10359;53.596;22.520;2022-09-02T02:13:38;3.50;;;2.20;;
20399;SDS011;10359;53.596;22.520;2022-09-02T02:16:41;3.60;;;2.30;;
20399;SDS011;10359;53.596;22.520;2022-09-02T02:19:10;3.50;;;2.33;;
20399;SDS011;10359;53.596;22.520;2022-09-02T02:21:39;5.43;;;2.57;;
20399;SDS011;10359;53.596;22.520;2022-09-02T02:24:10;3.33;;;2.20;;
20399;SDS011;10359;53.596;22.520;2022-09-02T02:26:39;3.93;;;2.40;;
20399;SDS011;10359;53.596;22.520;2022-09-02T02:29:08;3.20;;;2.10;;
20399;SDS011;10359;53.596;22.520;2022-09-02T02:31:38;2.60;;;2.10;;
20399;SDS011;10359;53.596;22.520;2022-09-02T02:34:07;2.37;;;2.00;;
20399;SDS011;10359;53.596;22.520;2022-09-02T02:36:37;2.73;;;2.00;;
20399;SDS011;10359;53.596;22.520;2022-09-02T02:39:07;3.20;;;2.30;;
20399;SDS011;10359;53.596;22.520;2022-09-02T02:41:38;3.20;;;2.63;;
20399;SDS011;10359;53.596;22.520;2022-09-02T02:44:10;2.70;;;2.13;;
20399;SDS011;10359;53.596;22.520;2022-09-02T02:46:39;4.13;;;2.27;;
20399;SDS011;10359;53.596;22.520;2022-09-02T02:49:08;4.80;;;3.30;;
20399;SDS011;10359;53.596;22.520;2022-09-02T02:51:37;3.80;;;3.27;;
20399;SDS011;10359;53.596;22.520;2022-09-02T02:54:07;5.20;;;3.27;;
20399;SDS011;10359;53.596;22.520;2022-09-02T02:56:38;2.73;;;2.47;;
20399;SDS011;10359;53.596;22.520;2022-09-02T02:59:07;2.97;;;2.67;;
20399;SDS011;10359;53.596;22.520;2022-09-02T03:01:37;3.57;;;3.13;;
20399;SDS011;10359;53.596;22.520;2022-09-02T03:04:06;4.27;;;2.80;;
20399;SDS011;10359;53.596;22.520;2022-09-02T03:06:35;5.23;;;2.87;;
20399;SDS011;10359;53.596;22.520;2022-09-02T03:09:05;2.73;;;2.50;;
20399;SDS011;10359;53.596;22.520;2022-09-02T03:11:54;3.83;;;2.80;;
20399;SDS011;10359;53.596;22.520;2022-09-02T03:14:23;3.00;;;2.20;;
20399;SDS011;10359;53.596;22.520;2022-09-02T03:16:53;3.93;;;2.13;;
20399;SDS011;10359;53.596;22.520;2022-09-02T03:19:22;2.50;;;2.13;;
20399;SDS011;10359;53.596;22.520;2022-09-02T03:21:51;3.97;;;2.07;;
20399;SDS011;10359;53.596;22.520;2022-09-02T03:24:21;3.70;;;2.10;;
20399;SDS011;10359;53.596;22.520;2022-09-02T03:26:50;3.37;;;2.30;;
20399;SDS011;10359;53.596;22.520;2022-09-02T03:29:21;2.27;;;2.07;;
20399;SDS011;10359;53.596;22.520;2022-09-02T03:31:50;2.37;;;2.00;;
20399;SDS011;10359;53.596;22.520;2022-09-02T03:34:22;4.43;;;2.67;;
20399;SDS011;10359;53.596;22.520;2022-09-02T03:36:51;4.63;;;2.50;;
20399;SDS011;10359;53.596;22.520;2022-09-02T03:39:20;2.90;;;2.10;;
20399;SDS011;10359;53.596;22.520;2022-09-02T03:41:49;3.97;;;2.37;;
20399;SDS011;10359;53.596;22.520;2022-09-02T03:44:19;5.50;;;2.93;;
20399;SDS011;10359;53.596;22.520;2022-09-02T03:46:49;4.30;;;2.73;;
20399;SDS011;10359;53.596;22.520;2022-09-02T03:49:18;3.90;;;2.90;;
20399;SDS011;10359;53.596;22.520;2022-09-02T03:51:48;3.67;;;2.77;;
20399;SDS011;10359;53.596;22.520;2022-09-02T03:54:17;3.90;;;2.73;;
20399;SDS011;10359;53.596;22.520;2022-09-02T03:56:46;4.87;;;3.10;;
20399;SDS011;10359;53.596;22.520;2022-09-02T03:59:14;4.90;;;2.70;;
20399;SDS011;10359;53.596;22.520;2022-09-02T04:01:44;3.63;;;2.90;;
20399;SDS011;10359;53.596;22.520;2022-09-02T04:04:14;4.93;;;3.00;;
20399;SDS011;10359;53.596;22.520;2022-09-02T04:06:48;3.60;;;3.30;;
20399;SDS011;10359;53.596;22.520;2022-09-02T04:09:17;4.33;;;3.17;;
20399;SDS011;10359;53.596;22.520;2022-09-02T04:11:46;3.77;;;3.33;;
20399;SDS011;10359;53.596;22.520;2022-09-02T04:14:15;4.60;;;3.03;;
20399;SDS011;10359;53.596;22.520;2022-09-02T04:16:44;5.53;;;3.23;;
20399;SDS011;10359;53.596;22.520;2022-09-02T04:19:15;3.80;;;3.00;;
20399;SDS011;10359;53.596;22.520;2022-09-02T04:21:44;4.37;;;3.07;;
20399;SDS011;10359;53.596;22.520;2022-09-02T04:24:13;6.23;;;3.80;;
20399;SDS011;10359;53.596;22.520;2022-09-02T04:26:42;6.47;;;3.93;;
20399;SDS011;10359;53.596;22.520;2022-09-02T04:29:11;4.80;;;4.07;;
20399;SDS011;10359;53.596;22.520;2022-09-02T04:31:42;5.93;;;3.67;;
20399;SDS011;10359;53.596;22.520;2022-09-02T04:34:11;5.10;;;3.53;;
20399;SDS011;10359;53.596;22.520;2022-09-02T04:36:41;3.60;;;3.20;;
20399;SDS011;10359;53.596;22.520;2022-09-02T04:39:10;4.67;;;3.53;;
20399;SDS011;10359;53.596;22.520;2022-09-02T04:41:39;4.33;;;3.57;;
20399;SDS011;10359;53.596;22.520;2022-09-02T04:44:08;6.53;;;5.30;;
20399;SDS011;10359;53.596;22.520;2022-09-02T04:46:37;5.87;;;4.00;;
20399;SDS011;10359;53.596;22.520;2022-09-02T04:49:06;4.87;;;3.27;;
20399;SDS011;10359;53.596;22.520;2022-09-02T04:51:35;3.80;;;3.40;;
20399;SDS011;10359;53.596;22.520;2022-09-02T04:54:06;4.10;;;3.37;;
20399;SDS011;10359;53.596;22.520;2022-09-02T04:56:35;4.10;;;3.27;;
20399;SDS011;10359;53.596;22.520;2022-09-02T04:59:04;4.43;;;3.47;;
20399;SDS011;10359;53.596;22.520;2022-09-02T05:01:34;3.93;;;3.00;;
20399;SDS011;10359;53.596;22.520;2022-09-02T05:04:04;3.07;;;2.77;;
20399;SDS011;10359;53.596;22.520;2022-09-02T05:06:35;3.10;;;2.80;;
20399;SDS011;10359;53.596;22.520;2022-09-02T05:09:11;4.23;;;2.80;;
20399;SDS011;10359;53.596;22.520;2022-09-02T05:11:41;3.13;;;2.80;;
20399;SDS011;10359;53.596;22.520;2022-09-02T05:14:10;3.33;;;2.80;;
20399;SDS011;10359;53.596;22.520;2022-09-02T05:16:39;3.13;;;2.80;;
20399;SDS011;10359;53.596;22.520;2022-09-02T05:19:09;5.43;;;3.07;;
20399;SDS011;10359;53.596;22.520;2022-09-02T05:21:40;6.33;;;3.47;;
20399;SDS011;10359;53.596;22.520;2022-09-02T05:24:11;3.90;;;3.03;;
20399;SDS011;10359;53.596;22.520;2022-09-02T05:26:40;5.27;;;3.80;;
20399;SDS011;10359;53.596;22.520;2022-09-02T05:29:10;3.50;;;3.17;;
20399;SDS011;10359;53.596;22.520;2022-09-02T05:31:40;4.53;;;3.60;;
20399;SDS011;10359;53.596;22.520;2022-09-02T05:34:09;6.77;;;4.30;;
20399;SDS011;10359;53.596;22.520;2022-09-02T05:36:38;5.27;;;4.20;;
20399;SDS011;10359;53.596;22.520;2022-09-02T05:39:07;7.30;;;4.70;;
20399;SDS011;10359;53.596;22.520;2022-09-02T05:41:37;6.97;;;5.27;;
20399;SDS011;10359;53.596;22.520;2022-09-02T05:44:07;5.50;;;3.27;;
20399;SDS011;10359;53.596;22.520;2022-09-02T05:46:36;9.73;;;5.10;;
20399;SDS011;10359;53.596;22.520;2022-09-02T05:49:05;7.13;;;4.30;;
20399;SDS011;10359;53.596;22.520;2022-09-02T05:51:39;4.50;;;3.90;;
20399;SDS011;10359;53.596;22.520;2022-09-02T05:54:10;4.87;;;4.10;;
20399;SDS011;10359;53.596;22.520;2022-09-02T05:56:43;6.53;;;5.07;;
20399;SDS011;10359;53.596;22.520;2022-09-02T05:59:14;6.27;;;4.30;;
20399;SDS011;10359;53.596;22.520;2022-09-02T06:01:44;6.33;;;4.57;;
20399;SDS011;10359;53.596;22.520;2022-09-02T06:04:13;4.60;;;4.20;;
20399;SDS011;10359;53.596;22.520;2022-09-02T06:06:42;5.20;;;4.30;;
20399;SDS011;10359;53.596;22.520;2022-09-02T06:09:13;4.73;;;4.03;;
20399;SDS011;10359;53.596;22.520;2022-09-02T06:11:45;6.07;;;4.80;;
20399;SDS011;10359;53.596;22.520;2022-09-02T06:14:15;5.03;;;3.90;;
20399;SDS011;10359;53.596;22.520;2022-09-02T06:16:46;5.33;;;4.20;;
20399;SDS011;10359;53.596;22.520;2022-09-02T06:19:16;5.53;;;4.13;;
20399;SDS011;10359;53.596;22.520;2022-09-02T06:21:46;6.33;;;3.73;;
20399;SDS011;10359;53.596;22.520;2022-09-02T06:24:16;6.93;;;3.93;;
20399;SDS011;10359;53.596;22.520;2022-09-02T06:26:46;4.97;;;3.33;;
20399;SDS011;10359;53.596;22.520;2022-09-02T06:29:22;3.70;;;3.30;;
20399;SDS011;10359;53.596;22.520;2022-09-02T06:31:52;4.17;;;3.67;;
20399;SDS011;10359;53.596;22.520;2022-09-02T06:34:22;4.50;;;3.10;;
20399;SDS011;10359;53.596;22.520;2022-09-02T06:36:52;6.23;;;3.33;;
20399;SDS011;10359;53.596;22.520;2022-09-02T06:39:23;4.30;;;3.80;;
20399;SDS011;10359;53.596;22.520;2022-09-02T06:41:55;4.60;;;3.60;;
20399;SDS011;10359;53.596;22.520;2022-09-02T06:44:25;5.40;;;3.57;;
20399;SDS011;10359;53.596;22.520;2022-09-02T06:46:58;6.17;;;4.27;;
20399;SDS011;10359;53.596;22.520;2022-09-02T06:49:28;5.03;;;3.77;;
20399;SDS011;10359;53.596;22.520;2022-09-02T06:51:57;5.13;;;4.10;;
20399;SDS011;10359;53.596;22.520;2022-09-02T06:54:26;5.70;;;3.60;;
20399;SDS011;10359;53.596;22.520;2022-09-02T06:56:56;5.97;;;4.33;;
20399;SDS011;10359;53.596;22.520;2022-09-02T06:59:26;4.70;;;3.63;;
20399;SDS011;10359;53.596;22.520;2022-09-02T07:01:55;4.70;;;2.87;;
20399;SDS011;10359;53.596;22.520;2022-09-02T07:04:24;4.10;;;2.70;;
20399;SDS011;10359;53.596;22.520;2022-09-02T07:07:10;4.27;;;2.93;;
20399;SDS011;10359;53.596;22.520;2022-09-02T07:09:39;6.27;;;3.53;;
20399;SDS011;10359;53.596;22.520;2022-09-02T07:12:10;4.27;;;2.60;;
20399;SDS011;10359;53.596;22.520;2022-09-02T07:14:41;5.37;;;4.23;;
20399;SDS011;10359;53.596;22.520;2022-09-02T07:17:11;4.50;;;3.00;;
20399;SDS011;10359;53.596;22.520;2022-09-02T07:19:43;4.30;;;3.10;;
20399;SDS011;10359;53.596;22.520;2022-09-02T07:22:12;2.77;;;1.90;;
20399;SDS011;10359;53.596;22.520;2022-09-02T07:24:44;2.23;;;1.93;;
20399;SDS011;10359;53.596;22.520;2022-09-02T07:27:14;4.30;;;1.63;;
20399;SDS011;10359;53.596;22.520;2022-09-02T07:29:46;1.70;;;1.10;;
20399;SDS011;10359;53.596;22.520;2022-09-02T07:32:15;1.30;;;1.17;;
20399;SDS011;10359;53.596;22.520;2022-09-02T07:34:45;2.43;;;1.20;;
20399;SDS011;10359;53.596;22.520;2022-09-02T07:37:14;1.73;;;1.30;;
20399;SDS011;10359;53.596;22.520;2022-09-02T07:39:43;1.47;;;1.37;;
20399;SDS011;10359;53.596;22.520;2022-09-02T07:42:12;1.97;;;1.20;;
20399;SDS011;10359;53.596;22.520;2022-09-02T07:44:44;1.37;;;1.10;;
20399;SDS011;10359;53.596;22.520;2022-09-02T07:47:13;2.20;;;1.17;;
20399;SDS011;10359;53.596;22.520;2022-09-02T07:49:42;1.30;;;1.10;;
20399;SDS011;10359;53.596;22.520;2022-09-02T07:52:31;1.00;;;1.00;;
20399;SDS011;10359;53.596;22.520;2022-09-02T07:55:00;2.07;;;0.93;;
20399;SDS011;10359;53.596;22.520;2022-09-02T07:57:30;1.40;;;1.03;;
20399;SDS011;10359;53.596;22.520;2022-09-02T07:59:59;1.20;;;1.00;;
20399;SDS011;10359;53.596;22.520;2022-09-02T08:02:28;1.10;;;1.00;;
20399;SDS011;10359;53.596;22.520;2022-09-02T08:04:57;3.20;;;1.20;;
20399;SDS011;10359;53.596;22.520;2022-09-02T08:07:26;1.33;;;1.10;;
20399;SDS011;10359;53.596;22.520;2022-09-02T08:09:55;1.40;;;1.10;;
20399;SDS011;10359;53.596;22.520;2022-09-02T08:12:26;2.27;;;1.23;;
20399;SDS011;10359;53.596;22.520;2022-09-02T08:14:57;1.10;;;1.00;;
20399;SDS011;10359;53.596;22.520;2022-09-02T08:17:26;1.20;;;1.10;;
20399;SDS011;10359;53.596;22.520;2022-09-02T08:19:55;1.47;;;1.00;;
20399;SDS011;10359;53.596;22.520;2022-09-02T08:22:24;1.63;;;0.90;;
20399;SDS011;10359;53.596;22.520;2022-09-02T08:24:53;1.37;;;0.93;;
20399;SDS011;10359;53.596;22.520;2022-09-02T08:27:22;2.13;;;1.00;;
20399;SDS011;10359;53.596;22.520;2022-09-02T08:29:53;1.20;;;1.10;;
20399;SDS011;10359;53.596;22.520;2022-09-02T08:32:24;1.37;;;1.00;;
20399;SDS011;10359;53.596;22.520;2022-09-02T08:34:53;1.13;;;1.00;;
20399;SDS011;10359;53.596;22.520;2022-09-02T08:37:22;0.70;;;0.70;;
20399;SDS011;10359;53.596;22.520;2022-09-02T08:39:51;1.70;;;0.90;;
20399;SDS011;10359;53.596;22.520;2022-09-02T08:42:21;0.80;;;0.80;;
20399;SDS011;10359;53.596;22.520;2022-09-02T08:44:53;2.27;;;1.20;;
20399;SDS011;10359;53.596;22.520;2022-09-02T08:47:29;1.00;;;0.90;;
20399;SDS011;10359;53.596;22.520;2022-09-02T08:50:02;0.90;;;0.90;;
20399;SDS011;10359;53.596;22.520;2022-09-02T08:52:35;1.00;;;1.00;;
20399;SDS011;10359;53.596;22.520;2022-09-02T08:55:09;0.93;;;0.93;;
20399;SDS011;10359;53.596;22.520;2022-09-02T08:57:42;1.23;;;1.13;;
20399;SDS011;10359;53.596;22.520;2022-09-02T09:00:12;2.37;;;1.17;;
20399;SDS011;10359;53.596;22.520;2022-09-02T09:02:48;1.57;;;0.97;;
20399;SDS011;10359;53.596;22.520;2022-09-02T09:05:29;0.83;;;0.83;;
20399;SDS011;10359;53.596;22.520;2022-09-02T09:08:07;0.93;;;0.93;;
20399;SDS011;10359;53.596;22.520;2022-09-02T09:10:50;1.60;;;1.10;;
20399;SDS011;10359;53.596;22.520;2022-09-02T09:13:39;2.03;;;1.30;;
20399;SDS011;10359;53.596;22.520;2022-09-02T09:16:43;1.13;;;1.03;;
20399;SDS011;10359;53.596;22.520;2022-09-02T09:19:20;2.20;;;1.40;;
20399;SDS011;10359;53.596;22.520;2022-09-02T09:22:01;1.30;;;1.10;;
20399;SDS011;10359;53.596;22.520;2022-09-02T09:24:33;1.23;;;1.13;;
20399;SDS011;10359;53.596;22.520;2022-09-02T09:27:12;3.13;;;1.37;;
20399;SDS011;10359;53.596;22.520;2022-09-02T09:29:48;3.10;;;1.20;;
20399;SDS011;10359;53.596;22.520;2022-09-02T09:32:20;1.40;;;1.30;;
20399;SDS011;10359;53.596;22.520;2022-09-02T09:34:55;1.60;;;1.30;;
20399;SDS011;10359;53.596;22.520;2022-09-02T09:37:29;1.30;;;1.20;;
20399;SDS011;10359;53.596;22.520;2022-09-02T09:42:55;1.27;;;1.10;;
20399;SDS011;10359;53.596;22.520;2022-09-02T09:45:31;1.63;;;1.20;;
20399;SDS011;10359;53.596;22.520;2022-09-02T09:48:21;2.10;;;1.07;;
20399;SDS011;10359;53.596;22.520;2022-09-02T09:51:10;1.40;;;1.30;;
20399;SDS011;10359;53.596;22.520;2022-09-02T09:53:41;2.93;;;1.57;;
20399;SDS011;10359;53.596;22.520;2022-09-02T09:56:24;1.50;;;1.20;;
20399;SDS011;10359;53.596;22.520;2022-09-02T09:59:03;1.07;;;1.00;;
20399;SDS011;10359;53.596;22.520;2022-09-02T10:01:36;1.23;;;1.10;;
20399;SDS011;10359;53.596;22.520;2022-09-02T10:04:06;3.20;;;1.60;;
20399;SDS011;10359;53.596;22.520;2022-09-02T10:06:58;2.73;;;1.50;;
20399;SDS011;10359;53.596;22.520;2022-09-02T10:09:29;2.40;;;1.30;;
20399;SDS011;10359;53.596;22.520;2022-09-02T10:12:00;1.60;;;1.20;;
20399;SDS011;10359;53.596;22.520;2022-09-02T10:14:32;1.27;;;1.17;;
20399;SDS011;10359;53.596;22.520;2022-09-02T10:17:10;1.20;;;1.10;;
20399;SDS011;10359;53.596;22.520;2022-09-02T10:19:50;2.27;;;1.40;;
20399;SDS011;10359;53.596;22.520;2022-09-02T10:22:34;3.70;;;2.60;;
20399;SDS011;10359;53.596;22.520;2022-09-02T10:25:27;3.43;;;3.17;;
20399;SDS011;10359;53.596;22.520;2022-09-02T10:28:02;1.10;;;1.10;;
20399;SDS011;10359;53.596;22.520;2022-09-02T10:30:41;1.33;;;1.00;;
20399;SDS011;10359;53.596;22.520;2022-09-02T10:33:22;1.30;;;1.13;;
20399;SDS011;10359;53.596;22.520;2022-09-02T10:36:01;1.57;;;1.07;;
20399;SDS011;10359;53.596;22.520;2022-09-02T10:38:42;3.50;;;1.10;;
20399;SDS011;10359;53.596;22.520;2022-09-02T10:41:20;3.53;;;1.30;;
20399;SDS011;10359;53.596;22.520;2022-09-02T10:44:20;2.00;;;1.70;;
20399;SDS011;10359;53.596;22.520;2022-09-02T10:46:59;1.80;;;1.30;;
20399;SDS011;10359;53.596;22.520;2022-09-02T10:49:43;1.43;;;1.33;;
20399;SDS011;10359;53.596;22.520;2022-09-02T10:55:23;1.03;;;1.03;;
20399;SDS011;10359;53.596;22.520;2022-09-02T10:58:04;1.37;;;1.17;;
20399;SDS011;10359;53.596;22.520;2022-09-02T11:00:39;1.10;;;1.00;;
20399;SDS011;10359;53.596;22.520;2022-09-02T11:03:14;1.63;;;1.10;;
20399;SDS011;10359;53.596;22.520;2022-09-02T11:05:49;0.87;;;0.87;;
20399;SDS011;10359;53.596;22.520;2022-09-02T11:08:22;1.50;;;0.93;;
20399;SDS011;10359;53.596;22.520;2022-09-02T11:11:03;1.03;;;1.00;;
20399;SDS011;10359;53.596;22.520;2022-09-02T11:13:37;1.60;;;1.10;;
20399;SDS011;10359;53.596;22.520;2022-09-02T11:16:10;1.87;;;1.10;;
20399;SDS011;10359;53.596;22.520;2022-09-02T11:18:48;1.43;;;0.80;;
20399;SDS011;10359;53.596;22.520;2022-09-02T11:21:26;3.00;;;1.20;;
20399;SDS011;10359;53.596;22.520;2022-09-02T11:24:15;2.67;;;0.87;;
20399;SDS011;10359;53.596;22.520;2022-09-02T11:26:52;2.67;;;1.17;;
20399;SDS011;10359;53.596;22.520;2022-09-02T11:29:28;1.10;;;0.90;;
20399;SDS011;10359;53.596;22.520;2022-09-02T11:32:06;1.13;;;0.80;;
20399;SDS011;10359;53.596;22.520;2022-09-02T11:34:43;0.63;;;0.63;;
20399;SDS011;10359;53.596;22.520;2022-09-02T11:37:23;0.90;;;0.87;;
20399;SDS011;10359;53.596;22.520;2022-09-02T11:39:57;0.87;;;0.60;;
20399;SDS011;10359;53.596;22.520;2022-09-02T11:43:03;1.13;;;0.90;;
20399;SDS011;10359;53.596;22.520;2022-09-02T11:54:32;4.00;;;3.70;;
20399;SDS011;10359;53.596;22.520;2022-09-02T11:57:04;4.83;;;4.40;;
20399;SDS011;10359;53.596;22.520;2022-09-02T12:02:47;1.30;;;1.00;;
20399;SDS011;10359;53.596;22.520;2022-09-02T12:08:13;1.17;;;1.07;;
20399;SDS011;10359;53.596;22.520;2022-09-02T12:11:34;2.07;;;0.97;;
20399;SDS011;10359;53.596;22.520;2022-09-02T12:14:09;1.23;;;0.60;;
20399;SDS011;10359;53.596;22.520;2022-09-02T12:17:00;0.97;;;0.73;;
20399;SDS011;10359;53.596;22.520;2022-09-02T12:19:42;2.10;;;0.70;;
20399;SDS011;10359;53.596;22.520;2022-09-02T12:22:22;2.07;;;1.10;;
20399;SDS011;10359;53.596;22.520;2022-09-02T12:24:55;1.57;;;1.47;;
20399;SDS011;10359;53.596;22.520;2022-09-02T12:27:25;1.70;;;1.60;;
20399;SDS011;10359;53.596;22.520;2022-09-02T12:29:57;1.63;;;1.53;;
20399;SDS011;10359;53.596;22.520;2022-09-02T12:35:50;0.77;;;0.77;;
20399;SDS011;10359;53.596;22.520;2022-09-02T12:38:25;0.60;;;0.60;;
20399;SDS011;10359;53.596;22.520;2022-09-02T12:41:06;0.60;;;0.60;;
20399;SDS011;10359;53.596;22.520;2022-09-02T12:43:56;0.93;;;0.87;;
20399;SDS011;10359;53.596;22.520;2022-09-02T12:46:56;0.80;;;0.60;;
20399;SDS011;10359;53.596;22.520;2022-09-02T12:49:40;1.20;;;0.77;;
20399;SDS011;10359;53.596;22.520;2022-09-02T12:55:21;0.60;;;0.60;;
20399;SDS011;10359;53.596;22.520;2022-09-02T12:57:53;0.73;;;0.70;;
20399;SDS011;10359;53.596;22.520;2022-09-02T13:00:34;1.57;;;0.80;;
20399;SDS011;10359;53.596;22.520;2022-09-02T13:03:22;1.30;;;0.60;;
20399;SDS011;10359;53.596;22.520;2022-09-02T13:06:11;0.80;;;0.70;;
20399;SDS011;10359;53.596;22.520;2022-09-02T13:09:11;1.27;;;0.80;;
20399;SDS011;10359;53.596;22.520;2022-09-02T13:15:15;0.70;;;0.70;;
20399;SDS011;10359;53.596;22.520;2022-09-02T13:18:07;2.97;;;0.60;;
20399;SDS011;10359;53.596;22.520;2022-09-02T13:21:03;0.70;;;0.70;;
20399;SDS011;10359;53.596;22.520;2022-09-02T13:24:13;0.83;;;0.80;;
20399;SDS011;10359;53.596;22.520;2022-09-02T13:27:24;1.37;;;1.23;;
20399;SDS011;10359;53.596;22.520;2022-09-02T13:30:17;1.93;;;1.20;;
20399;SDS011;10359;53.596;22.520;2022-09-02T13:32:54;1.40;;;1.30;;
20399;SDS011;10359;53.596;22.520;2022-09-02T13:35:26;1.70;;;1.50;;
20399;SDS011;10359;53.596;22.520;2022-09-02T13:37:57;1.30;;;1.30;;
20399;SDS011;10359;53.596;22.520;2022-09-02T13:40:29;1.50;;;1.40;;
20399;SDS011;10359;53.596;22.520;2022-09-02T13:43:01;1.57;;;1.40;;
20399;SDS011;10359;53.596;22.520;2022-09-02T13:45:32;1.07;;;1.00;;
20399;SDS011;10359;53.596;22.520;2022-09-02T13:48:05;1.10;;;1.00;;
20399;SDS011;10359;53.596;22.520;2022-09-02T13:50:41;1.47;;;0.90;;
20399;SDS011;10359;53.596;22.520;2022-09-02T13:53:15;1.27;;;1.17;;
20399;SDS011;10359;53.596;22.520;2022-09-02T13:56:12;1.33;;;1.23;;
20399;SDS011;10359;53.596;22.520;2022-09-02T13:58:43;2.40;;;1.83;;
20399;SDS011;10359;53.596;22.520;2022-09-02T14:01:19;2.03;;;1.60;;
20399;SDS011;10359;53.596;22.520;2022-09-02T14:03:51;2.23;;;1.90;;
20399;SDS011;10359;53.596;22.520;2022-09-02T14:06:22;1.83;;;1.73;;
20399;SDS011;10359;53.596;22.520;2022-09-02T14:08:55;4.10;;;1.60;;
20399;SDS011;10359;53.596;22.520;2022-09-02T14:11:27;2.37;;;1.40;;
20399;SDS011;10359;53.596;22.520;2022-09-02T14:14:00;1.57;;;1.40;;
20399;SDS011;10359;53.596;22.520;2022-09-02T14:16:30;1.37;;;1.27;;
20399;SDS011;10359;53.596;22.520;2022-09-02T14:19:04;1.63;;;1.23;;
20399;SDS011;10359;53.596;22.520;2022-09-02T14:21:35;2.60;;;1.30;;
20399;SDS011;10359;53.596;22.520;2022-09-02T14:24:09;0.60;;;0.60;;
20399;SDS011;10359;53.596;22.520;2022-09-02T14:26:42;1.10;;;0.70;;
20399;SDS011;10359;53.596;22.520;2022-09-02T14:29:13;1.50;;;0.70;;
20399;SDS011;10359;53.596;22.520;2022-09-02T14:31:45;1.07;;;0.63;;
20399;SDS011;10359;53.596;22.520;2022-09-02T14:34:30;0.70;;;0.70;;
20399;SDS011;10359;53.596;22.520;2022-09-02T14:37:04;1.00;;;0.60;;
20399;SDS011;10359;53.596;22.520;2022-09-02T14:39:53;3.00;;;1.00;;
20399;SDS011;10359;53.596;22.520;2022-09-02T14:42:49;0.63;;;0.63;;
20399;SDS011;10359;53.596;22.520;2022-09-02T14:45:23;1.27;;;0.70;;
20399;SDS011;10359;53.596;22.520;2022-09-02T14:47:55;1.17;;;1.00;;
20399;SDS011;10359;53.596;22.520;2022-09-02T14:50:27;0.73;;;0.73;;
20399;SDS011;10359;53.596;22.520;2022-09-02T14:53:00;1.67;;;1.20;;
20399;SDS011;10359;53.596;22.520;2022-09-02T14:55:46;1.30;;;1.20;;
20399;SDS011;10359;53.596;22.520;2022-09-02T14:58:20;1.50;;;1.37;;
20399;SDS011;10359;53.596;22.520;2022-09-02T15:00:53;2.20;;;1.07;;
20399;SDS011;10359;53.596;22.520;2022-09-02T15:03:23;1.50;;;1.20;;
20399;SDS011;10359;53.596;22.520;2022-09-02T15:05:53;1.03;;;0.90;;
20399;SDS011;10359;53.596;22.520;2022-09-02T15:08:22;0.80;;;0.80;;
20399;SDS011;10359;53.596;22.520;2022-09-02T15:10:51;1.67;;;0.97;;
20399;SDS011;10359;53.596;22.520;2022-09-02T15:13:25;1.20;;;0.80;;
20399;SDS011;10359;53.596;22.520;2022-09-02T15:15:58;1.10;;;1.00;;
20399;SDS011;10359;53.596;22.520;2022-09-02T15:18:28;1.40;;;1.30;;
20399;SDS011;10359;53.596;22.520;2022-09-02T15:20:57;2.50;;;1.60;;
20399;SDS011;10359;53.596;22.520;2022-09-02T15:23:26;1.53;;;1.43;;
20399;SDS011;10359;53.596;22.520;2022-09-02T15:26:00;1.97;;;1.30;;
20399;SDS011;10359;53.596;22.520;2022-09-02T15:28:30;4.07;;;1.40;;
20399;SDS011;10359;53.596;22.520;2022-09-02T15:31:00;2.10;;;1.20;;
20399;SDS011;10359;53.596;22.520;2022-09-02T15:33:29;1.20;;;0.80;;
20399;SDS011;10359;53.596;22.520;2022-09-02T15:36:03;1.13;;;1.00;;
20399;SDS011;10359;53.596;22.520;2022-09-02T15:38:33;0.93;;;0.90;;
20399;SDS011;10359;53.596;22.520;2022-09-02T15:41:10;2.00;;;0.97;;
20399;SDS011;10359;53.596;22.520;2022-09-02T15:43:42;1.37;;;0.63;;
20399;SDS011;10359;53.596;22.520;2022-09-02T15:46:15;0.83;;;0.83;;